»·PEaware :: N2242N KEUG-KOTH

N2242N :: KEUG-KOTH

FLIGHT INFORMATION

Flight Status: Arrived
Operator: Privately registered:
United States
More flights under this callsign
Pilot: Geoff G. (2774)
Aircraft: CESSNA 172 SKYHAWK
(C172)
More flights by this aircraft type
Origin: KEUG Mahlon Sweet
United States
Destination: KOTH North Bend Mun
United States
More flights between these airports :: More routes between these airports
Route: +VAUGN V121 OTH
File this flight plan on PilotEdge
Remarks:
Altitude:
(Current/Filed)
6,000ft
Speed:
(Current/Filed)
110kts
Departed: 10-Nov-17 07:49 PM
Arrived: 10-Nov-17 08:41 PM
Distance/Time
Traveled:
61nm/0:52
Distance/Time
To Go:
Arrived

Flight Plot

Page will automatically refresh every two minutes.

Flight plan parsing failed; only flown route is shown


Map Options




Map Legend


Flown Route
Filed Route
Departure Airport
Arrival Airport
Navaid (VOR, NDB)
Fix

Horizontal Profiles

Position Reports

Time Latitude Longitude Heading Altitude Ground
Speed
10-Nov-17 19:31 44.115151 -123.215510 1 378ft 0kts
10-Nov-17 19:32 44.115151 -123.215510 1 378ft 0kts
10-Nov-17 19:33 44.115151 -123.215510 1 378ft 0kts
10-Nov-17 19:34 44.115151 -123.215510 1 378ft 0kts
10-Nov-17 19:35 44.115151 -123.215510 1 378ft 0kts
10-Nov-17 19:36 44.115151 -123.215510 1 378ft 0kts
10-Nov-17 19:37 44.115151 -123.215510 1 378ft 0kts
10-Nov-17 19:38 44.115151 -123.215510 1 378ft 0kts
10-Nov-17 19:39 44.115151 -123.215510 1 378ft 0kts
10-Nov-17 19:40 44.115151 -123.215510 1 378ft 0kts
10-Nov-17 19:41 44.115151 -123.215510 1 378ft 0kts
10-Nov-17 19:42 44.115151 -123.215510 1 378ft 0kts
10-Nov-17 19:43 44.115151 -123.215510 1 378ft 0kts
10-Nov-17 19:44 44.115151 -123.215510 1 378ft 0kts
10-Nov-17 19:45 44.115151 -123.215510 1 378ft 0kts
10-Nov-17 19:46 44.115151 -123.215510 1 378ft 0kts
10-Nov-17 19:47 44.115779 -123.216939 359 378ft 7kts
10-Nov-17 19:48 44.118949 -123.216987 1 378ft 14kts
10-Nov-17 19:49 44.123226 -123.217067 2 378ft 13kts
10-Nov-17 19:50 44.125396 -123.217844 325 378ft 0kts
10-Nov-17 19:51 44.125396 -123.217844 325 378ft 0kts
10-Nov-17 19:52 44.125878 -123.218261 329 378ft 18kts
10-Nov-17 19:53 44.125078 -123.218999 175 378ft 39kts
10-Nov-17 19:54 44.106661 -123.221354 173 1326ft 72kts
10-Nov-17 19:55 44.085755 -123.219811 179 2343ft 78kts
10-Nov-17 19:56 44.064488 -123.221270 194 3299ft 80kts
10-Nov-17 19:57 44.052485 -123.248970 236 4204ft 84kts
10-Nov-17 19:58 44.040097 -123.276002 239 5090ft 85kts
10-Nov-17 19:59 44.029879 -123.304710 231 5937ft 85kts
10-Nov-17 20:00 44.012294 -123.338405 233 6068ft 115kts
10-Nov-17 20:01 43.994074 -123.377638 231 6014ft 123kts
10-Nov-17 20:02 43.975557 -123.417713 232 5932ft 128kts
10-Nov-17 20:03 43.955421 -123.455380 221 6027ft 119kts
10-Nov-17 20:04 43.931705 -123.487648 225 6062ft 118kts
10-Nov-17 20:05 43.907663 -123.520109 227 6025ft 119kts
10-Nov-17 20:06 43.885144 -123.552288 220 5982ft 124kts
10-Nov-17 20:07 43.859772 -123.582367 222 6042ft 119kts
10-Nov-17 20:08 43.836998 -123.616758 225 6000ft 122kts
10-Nov-17 20:09 43.812836 -123.649326 222 5986ft 123kts
10-Nov-17 20:10 43.786231 -123.676445 208 6003ft 124kts
10-Nov-17 20:11 43.763376 -123.711822 227 6007ft 124kts
10-Nov-17 20:12 43.740781 -123.747084 224 5977ft 130kts
10-Nov-17 20:13 43.716716 -123.780619 216 6049ft 123kts
10-Nov-17 20:14 43.692141 -123.814841 222 5967ft 121kts
10-Nov-17 20:15 43.666866 -123.845496 234 5988ft 120kts
10-Nov-17 20:16 43.652367 -123.887694 248 5998ft 124kts
10-Nov-17 20:17 43.640162 -123.931882 247 6007ft 122kts
10-Nov-17 20:18 43.627347 -123.974947 244 6090ft 118kts
10-Nov-17 20:19 43.612085 -124.017183 246 5977ft 125kts
10-Nov-17 20:20 43.600291 -124.061381 238 6018ft 122kts
10-Nov-17 20:21 43.584211 -124.102124 241 6035ft 124kts
10-Nov-17 20:22 43.572718 -124.146083 242 6067ft 125kts
10-Nov-17 20:23 43.559591 -124.189666 243 6093ft 121kts
10-Nov-17 20:24 43.549098 -124.234615 248 6064ft 124kts
10-Nov-17 20:25 43.535654 -124.279496 247 6020ft 127kts
10-Nov-17 20:26 43.523683 -124.324994 243 5914ft 122kts
10-Nov-17 20:27 43.511309 -124.368740 248 5078ft 126kts
10-Nov-17 20:28 43.499348 -124.413987 250 4492ft 123kts
10-Nov-17 20:29 43.487913 -124.459047 244 4092ft 133kts
10-Nov-17 20:30 43.475532 -124.506377 252 4048ft 127kts
10-Nov-17 20:31 43.464380 -124.553222 249 4041ft 126kts
10-Nov-17 20:32 43.450608 -124.596916 225 4128ft 126kts
10-Nov-17 20:33 43.420205 -124.591890 149 4151ft 119kts
10-Nov-17 20:34 43.390224 -124.570806 157 4069ft 123kts
10-Nov-17 20:35 43.359651 -124.552419 155 4084ft 123kts
10-Nov-17 20:36 43.329302 -124.534215 119 4072ft 121kts
10-Nov-17 20:37 43.330302 -124.487241 90 3966ft 122kts
10-Nov-17 20:38 43.339897 -124.446513 68 3486ft 93kts
10-Nov-17 20:39 43.350058 -124.420210 66 2739ft 75kts
10-Nov-17 20:40 43.359721 -124.392628 58 2250ft 83kts
10-Nov-17 20:41 43.371362 -124.365637 65 1789ft 79kts
10-Nov-17 20:42 43.382943 -124.337751 62 1318ft 88kts
10-Nov-17 20:43 43.394768 -124.309705 57 878ft 79kts
10-Nov-17 20:44 43.405526 -124.283181 61 440ft 81kts
10-Nov-17 20:45 43.415756 -124.258108 58 24ft 53kts
10-Nov-17 20:46 43.417661 -124.251094 148 21ft 0kts
10-Nov-17 20:47 43.418585 -124.248159 61 21ft 14kts
10-Nov-17 20:48 43.417302 -124.246651 191 21ft 8kts

Navigation Log

Ident Type
Flight plan parsing failed, navigation log unavailable